Time;durP1;ratioP1;P1;durP2;ratioP2;P2;SDS_P1;SDS_P2;PMS_P1;PMS_P2;Temp;Humidity;BMP_temperature;BMP_pressure;BME280_temperature;BME280_humidity;BME280_pressure;Samples;Min_cycle;Max_cycle;Signal;HPM_P1;HPM_P2
2021/03/01 00:04:45;;;;;;;25.15;7.13;;;22.90;52.60;;;;;;4986870;28;100889;-86
2021/03/01 00:07:27;;;;;;;31.67;8.07;;;22.90;52.90;;;;;;4963087;28;100262;-87
2021/03/01 00:10:06;;;;;;;24.05;7.07;;;22.90;53.20;;;;;;4960838;28;100240;-86
2021/03/01 00:12:36;;;;;;;17.73;6.28;;;22.90;53.20;;;;;;4964040;28;102576;-86
2021/03/01 00:15:03;;;;;;;20.83;6.50;;;22.90;53.40;;;;;;4990027;28;101088;-85
2021/03/01 00:17:35;;;;;;;16.65;6.15;;;22.80;54.30;;;;;;4978705;28;100108;-86
2021/03/01 00:20:14;;;;;;;20.65;6.35;;;22.70;53.50;;;;;;4990543;28;100284;-87
2021/03/01 00:22:43;;;;;;;18.17;6.13;;;22.80;53.70;;;;;;5001088;28;102801;-87
2021/03/01 00:25:12;;;;;;;18.67;6.67;;;22.80;53.70;;;;;;4985175;28;101022;-86
2021/03/01 00:27:38;;;;;;;27.80;7.55;;;22.80;53.90;;;;;;4992225;28;100975;-83
2021/03/01 00:30:12;;;;;;;25.60;6.75;;;22.90;53.60;;;;;;4993840;28;100323;-84
2021/03/01 00:32:44;;;;;;;24.13;7.72;;;23.00;53.50;;;;;;4979466;28;103814;-86
2021/03/01 00:38:32;;;;;;;19.55;6.72;;;23.20;53.10;;;;;;4995930;28;101367;-88
2021/03/01 00:41:04;;;;;;;34.55;7.28;;;23.20;52.80;;;;;;4983375;28;101591;-86
2021/03/01 00:43:41;;;;;;;25.55;7.40;;;23.10;53.40;;;;;;4987732;28;101271;-86
2021/03/01 00:46:27;;;;;;;23.73;7.65;;;23.10;53.50;;;;;;4980509;28;101797;-87
2021/03/01 00:48:55;;;;;;;15.82;6.20;;;23.10;53.70;;;;;;4992631;28;100898;-79
2021/03/01 00:51:21;;;;;;;19.83;6.78;;;23.10;53.70;;;;;;4998290;27;100388;-77
2021/03/01 00:53:47;;;;;;;21.40;7.78;;;23.20;53.70;;;;;;4990208;28;101033;-83
2021/03/01 00:56:19;;;;;;;15.80;8.02;;;22.90;50.70;;;;;;4968164;28;100763;-84
2021/03/01 00:58:45;;;;;;;17.67;7.75;;;22.60;50.80;;;;;;4977225;28;101253;-80
2021/03/01 01:01:13;;;;;;;15.63;7.90;;;22.50;51.00;;;;;;4999114;28;100239;-79
2021/03/01 01:03:39;;;;;;;24.38;7.82;;;22.70;51.30;;;;;;4987769;28;101821;-79
2021/03/01 01:06:05;;;;;;;35.05;11.40;;;22.90;51.20;;;;;;4991283;28;100366;-79
2021/03/01 01:08:32;;;;;;;37.90;14.95;;;22.70;48.70;;;;;;4986170;28;101167;-79
2021/03/01 01:10:58;;;;;;;33.65;16.58;;;21.50;48.20;;;;;;4979714;28;101132;-79
2021/03/01 01:13:38;;;;;;;28.98;16.33;;;20.70;48.20;;;;;;4989576;28;100627;-77
2021/03/01 01:16:18;;;;;;;25.83;16.23;;;20.30;48.70;;;;;;4997426;28;101038;-80
2021/03/01 01:18:44;;;;;;;43.20;18.20;;;20.10;48.30;;;;;;4981608;28;101173;-79
2021/03/01 01:21:09;;;;;;;28.65;17.90;;;20.00;48.80;;;;;;4980730;28;101171;-79
2021/03/01 01:23:35;;;;;;;29.00;17.23;;;19.90;47.60;;;;;;4981259;28;103878;-78
2021/03/01 01:26:01;;;;;;;46.75;18.90;;;19.70;47.80;;;;;;4980722;28;104386;-79
2021/03/01 01:28:29;;;;;;;46.38;16.98;;;19.70;48.30;;;;;;5007828;28;101078;-79
2021/03/01 01:30:58;;;;;;;63.38;17.58;;;20.50;48.80;;;;;;5009381;28;101189;-80
2021/03/01 01:33:24;;;;;;;56.45;17.92;;;21.10;48.30;;;;;;5009327;28;100396;-78
2021/03/01 01:35:49;;;;;;;46.75;16.15;;;21.30;48.30;;;;;;5004441;28;105088;-78
2021/03/01 01:38:15;;;;;;;58.45;15.85;;;21.50;48.50;;;;;;5007758;28;100253;-79
2021/03/01 01:40:41;;;;;;;48.10;14.02;;;21.60;48.70;;;;;;5006081;28;100439;-77
2021/03/01 01:43:06;;;;;;;48.30;15.15;;;21.60;48.70;;;;;;5005493;28;101708;-78
2021/03/01 01:45:32;;;;;;;47.13;14.60;;;21.70;49.10;;;;;;5009635;28;116563;-75
2021/03/01 01:47:58;;;;;;;42.38;13.27;;;21.70;49.30;;;;;;5005073;28;101103;-80
2021/03/01 01:50:25;;;;;;;38.28;13.05;;;21.70;49.50;;;;;;5006992;28;100232;-79
2021/03/01 01:52:52;;;;;;;48.25;12.07;;;21.70;49.80;;;;;;4986329;28;101037;-78
2021/03/01 01:55:20;;;;;;;34.63;12.30;;;21.70;50.30;;;;;;4991252;28;101887;-78
2021/03/01 01:57:46;;;;;;;44.72;11.98;;;21.80;50.70;;;;;;4985070;28;101337;-79
2021/03/01 02:03:20;;;;;;;78.80;15.10;;;21.80;51.40;;;;;;4994260;28;102099;-78
2021/03/01 02:05:49;;;;;;;78.03;15.00;;;21.90;52.00;;;;;;4997872;28;101024;-80
2021/03/01 02:08:41;;;;;;;65.82;14.50;;;21.90;52.30;;;;;;4996140;28;101420;-79
2021/03/01 02:11:19;;;;;;;61.67;14.75;;;21.90;52.50;;;;;;4994460;28;101352;-79
2021/03/01 02:14:03;;;;;;;72.07;14.75;;;21.90;52.60;;;;;;4993522;28;100980;-79
2021/03/01 02:16:34;;;;;;;68.78;14.15;;;21.80;52.80;;;;;;4968989;28;100998;-78
2021/03/01 02:18:59;;;;;;;63.03;15.20;;;21.80;52.90;;;;;;4989578;28;101494;-79
2021/03/01 02:21:25;;;;;;;67.43;13.95;;;21.80;53.00;;;;;;4980969;28;101070;-77
2021/03/01 02:23:51;;;;;;;52.83;13.35;;;21.80;53.10;;;;;;4982258;28;129936;-79
2021/03/01 02:26:20;;;;;;;60.92;13.60;;;21.80;53.00;;;;;;5028394;22;101027;-83
2021/03/01 02:28:50;;;;;;;61.95;14.05;;;21.90;53.20;;;;;;4976247;28;101135;-84
2021/03/01 02:31:15;;;;;;;57.45;13.55;;;21.90;53.20;;;;;;4973804;28;101479;-84
2021/03/01 02:33:49;;;;;;;62.30;14.43;;;21.80;53.40;;;;;;4952247;28;130708;-84
2021/03/01 02:36:19;;;;;;;48.58;13.50;;;21.80;53.50;;;;;;4943342;28;102927;-83
2021/03/01 02:38:44;;;;;;;44.67;11.82;;;21.80;53.60;;;;;;4962835;28;101298;-84
2021/03/01 02:41:10;;;;;;;43.78;11.55;;;21.80;53.90;;;;;;4942210;28;100938;-83
2021/03/01 02:43:35;;;;;;;41.97;11.48;;;21.80;54.10;;;;;;4974152;28;101117;-84
2021/03/01 02:46:01;;;;;;;42.47;11.98;;;21.80;54.20;;;;;;4975059;28;126235;-84
2021/03/01 02:48:27;;;;;;;49.53;11.77;;;21.80;54.50;;;;;;4975839;28;112680;-83
2021/03/01 02:50:53;;;;;;;44.40;11.63;;;21.80;54.60;;;;;;4960966;28;101240;-86
2021/03/01 02:53:18;;;;;;;50.78;12.65;;;21.80;54.80;;;;;;4958408;28;129320;-84
2021/03/01 02:55:44;;;;;;;43.25;11.93;;;21.80;55.10;;;;;;4963728;28;131135;-83
2021/03/01 02:58:10;;;;;;;45.30;12.65;;;21.80;55.40;;;;;;4957625;28;106792;-86
2021/03/01 03:00:37;;;;;;;43.67;12.80;;;21.80;55.70;;;;;;4975535;28;100878;-83
2021/03/01 03:03:04;;;;;;;40.03;11.02;;;21.80;55.80;;;;;;4941292;28;105003;-83
2021/03/01 03:05:29;;;;;;;35.35;10.65;;;21.70;56.00;;;;;;4974061;28;101129;-84
2021/03/01 03:07:55;;;;;;;44.10;11.35;;;21.80;56.20;;;;;;4957415;28;112055;-83
2021/03/01 03:10:20;;;;;;;40.50;11.55;;;21.80;56.30;;;;;;4965169;28;110846;-83
2021/03/01 03:12:46;;;;;;;39.95;11.68;;;21.80;56.40;;;;;;4972664;28;130080;-81
2021/03/01 03:15:17;;;;;;;35.95;11.38;;;21.80;56.60;;;;;;4985257;28;102170;-83
2021/03/01 03:17:43;;;;;;;39.47;11.48;;;21.80;56.70;;;;;;4963797;28;100211;-84
2021/03/01 03:20:09;;;;;;;36.83;10.45;;;21.80;56.70;;;;;;4975773;28;112804;-83
2021/03/01 03:22:34;;;;;;;35.63;10.77;;;21.80;56.90;;;;;;4954838;28;130694;-83
2021/03/01 03:25:01;;;;;;;43.20;11.73;;;21.80;57.50;;;;;;4940671;28;102697;-83
2021/03/01 03:27:26;;;;;;;35.30;11.02;;;21.80;57.90;;;;;;4955891;28;101227;-82
2021/03/01 03:29:52;;;;;;;40.72;11.55;;;21.80;58.10;;;;;;4975025;28;104939;-83
2021/03/01 03:32:17;;;;;;;31.42;11.10;;;21.80;58.20;;;;;;4958498;28;111522;-83
2021/03/01 03:34:43;;;;;;;37.47;10.80;;;21.80;58.20;;;;;;4973504;28;129251;-83
2021/03/01 03:37:17;;;;;;;31.52;10.80;;;21.90;58.30;;;;;;4975775;28;112889;-83
2021/03/01 03:39:44;;;;;;;33.78;10.52;;;21.80;58.30;;;;;;4975288;28;100966;-83
2021/03/01 03:42:15;;;;;;;32.63;10.90;;;21.80;58.30;;;;;;4953560;28;122200;-83
2021/03/01 03:44:41;;;;;;;31.08;11.07;;;21.80;58.40;;;;;;4966485;28;109907;-81
2021/03/01 03:47:06;;;;;;;29.60;10.68;;;21.90;58.60;;;;;;4972843;28;110300;-83
2021/03/01 03:49:32;;;;;;;27.15;10.25;;;21.80;58.70;;;;;;4954114;28;112849;-82
2021/03/01 03:51:58;;;;;;;26.30;10.10;;;21.90;58.70;;;;;;4935216;28;113718;-82
2021/03/01 03:54:25;;;;;;;28.60;9.98;;;21.90;58.80;;;;;;4939040;28;103055;-82
2021/03/01 03:56:55;;;;;;;32.88;10.45;;;21.90;58.90;;;;;;4937178;28;100308;-82
2021/03/01 03:59:22;;;;;;;32.42;9.60;;;21.90;59.00;;;;;;4957517;28;101685;-83
2021/03/01 04:01:51;;;;;;;28.38;9.32;;;21.90;59.10;;;;;;4955273;28;104231;-83
2021/03/01 04:04:17;;;;;;;25.77;9.13;;;21.80;59.20;;;;;;4973141;28;114228;-81
2021/03/01 04:06:43;;;;;;;24.52;9.70;;;21.80;59.30;;;;;;4974015;28;111108;-82
2021/03/01 04:09:09;;;;;;;26.70;8.93;;;21.80;59.30;;;;;;4974681;28;100931;-82
2021/03/01 04:11:35;;;;;;;24.67;9.15;;;21.90;59.50;;;;;;4957000;28;100942;-83
2021/03/01 04:14:01;;;;;;;22.85;8.82;;;21.80;59.50;;;;;;4957692;28;100995;-83
2021/03/01 04:16:27;;;;;;;23.75;8.95;;;21.80;59.70;;;;;;4973651;28;100742;-83
2021/03/01 04:18:54;;;;;;;22.70;9.10;;;21.80;59.70;;;;;;4953795;28;106073;-83
2021/03/01 04:21:20;;;;;;;24.48;9.18;;;21.90;59.80;;;;;;4939842;28;104477;-81
2021/03/01 04:23:45;;;;;;;24.35;8.48;;;21.90;59.90;;;;;;4972393;28;116273;-83
2021/03/01 04:26:12;;;;;;;21.88;8.27;;;21.80;59.80;;;;;;4972281;28;100964;-83
2021/03/01 04:28:37;;;;;;;20.83;8.63;;;21.90;60.00;;;;;;4982715;28;101176;-83
2021/03/01 04:31:04;;;;;;;24.48;8.10;;;21.90;60.10;;;;;;4956016;28;129634;-82
2021/03/01 04:33:30;;;;;;;24.92;8.52;;;21.90;60.10;;;;;;4944039;28;108469;-82
2021/03/01 04:35:56;;;;;;;26.10;8.48;;;21.90;60.30;;;;;;4950083;28;101396;-82
2021/03/01 04:38:21;;;;;;;28.75;8.63;;;21.90;60.60;;;;;;4953954;28;109805;-83
2021/03/01 04:40:49;;;;;;;25.15;8.30;;;21.90;60.90;;;;;;4954978;28;129885;-81
2021/03/01 04:43:15;;;;;;;26.20;8.85;;;21.90;61.00;;;;;;4956936;28;116447;-82
2021/03/01 04:45:42;;;;;;;21.25;8.27;;;21.90;60.90;;;;;;4973089;28;111093;-82
2021/03/01 04:48:09;;;;;;;24.60;7.80;;;21.90;60.70;;;;;;4940697;28;101053;-82
2021/03/01 04:50:34;;;;;;;23.73;7.78;;;21.90;60.60;;;;;;4973453;28;103900;-83
2021/03/01 04:53:00;;;;;;;22.70;8.75;;;21.90;60.50;;;;;;4972335;28;130211;-85
2021/03/01 04:55:25;;;;;;;21.33;7.35;;;21.90;60.40;;;;;;4972559;28;111710;-81
2021/03/01 04:57:51;;;;;;;19.58;8.20;;;21.90;60.40;;;;;;4973050;28;111248;-82
2021/03/01 05:00:17;;;;;;;17.77;6.80;;;21.80;60.50;;;;;;4956995;28;107529;-83
2021/03/01 05:02:43;;;;;;;23.00;8.10;;;21.80;60.30;;;;;;4956564;28;122802;-81
2021/03/01 05:05:09;;;;;;;21.23;7.63;;;21.80;60.40;;;;;;4955411;28;111460;-81
2021/03/01 05:07:35;;;;;;;21.63;7.85;;;21.80;60.40;;;;;;4940677;28;101136;-82
2021/03/01 05:10:01;;;;;;;26.08;8.02;;;21.80;60.30;;;;;;4973075;28;101281;-83
2021/03/01 05:12:27;;;;;;;18.13;7.40;;;21.80;60.30;;;;;;4964635;28;114289;-82
2021/03/01 05:14:52;;;;;;;25.15;9.02;;;21.80;60.10;;;;;;4942930;28;105787;-83
2021/03/01 05:17:18;;;;;;;16.58;7.18;;;21.80;60.10;;;;;;4957155;28;101993;-82
2021/03/01 05:19:43;;;;;;;18.38;7.07;;;21.80;60.80;;;;;;4966816;28;101056;-83
2021/03/01 05:22:09;;;;;;;14.32;6.57;;;21.80;60.80;;;;;;4968554;28;122217;-83
2021/03/01 05:24:35;;;;;;;17.63;7.25;;;21.80;60.40;;;;;;4974048;28;100806;-82
2021/03/01 05:27:00;;;;;;;21.98;7.93;;;21.80;60.50;;;;;;4955795;28;100915;-82
2021/03/01 05:29:27;;;;;;;25.08;8.50;;;21.90;60.90;;;;;;4968443;28;131103;-83
2021/03/01 05:31:52;;;;;;;25.98;6.90;;;21.80;61.00;;;;;;4948513;28;114089;-83
2021/03/01 05:34:18;;;;;;;21.40;6.75;;;21.80;60.80;;;;;;4952538;28;110756;-82
2021/03/01 05:36:43;;;;;;;19.88;7.45;;;21.80;60.80;;;;;;4968181;28;110335;-83
2021/03/01 05:39:09;;;;;;;23.25;7.95;;;21.80;60.70;;;;;;4970867;28;124193;-83
2021/03/01 05:41:34;;;;;;;18.02;6.78;;;21.80;60.60;;;;;;4945252;28;131104;-83
2021/03/01 05:44:00;;;;;;;20.10;6.50;;;21.90;60.70;;;;;;4934923;28;100920;-83
2021/03/01 05:46:26;;;;;;;16.85;6.85;;;21.80;60.50;;;;;;4953867;28;101555;-83
2021/03/01 05:48:53;;;;;;;22.60;7.63;;;21.80;60.60;;;;;;4951805;28;104126;-84
2021/03/01 05:51:18;;;;;;;14.52;6.38;;;21.80;60.60;;;;;;4972406;28;121216;-83
2021/03/01 05:53:44;;;;;;;18.08;7.18;;;21.80;60.80;;;;;;4954249;28;112041;-83
2021/03/01 05:56:10;;;;;;;19.00;6.72;;;21.70;60.80;;;;;;4940707;28;101348;-82
2021/03/01 05:58:35;;;;;;;17.00;6.32;;;21.70;60.80;;;;;;4955024;28;104865;-83
2021/03/01 06:01:05;;;;;;;17.02;6.85;;;21.80;60.80;;;;;;4939528;28;102453;-83
2021/03/01 06:03:31;;;;;;;17.10;6.78;;;21.70;60.70;;;;;;4951324;28;101128;-84
2021/03/01 06:05:57;;;;;;;23.05;7.40;;;21.90;61.30;;;;;;4954238;28;101709;-82
2021/03/01 06:08:25;;;;;;;20.23;6.53;;;21.80;61.30;;;;;;4952847;28;103721;-81
2021/03/01 06:11:04;;;;;;;19.15;6.80;;;21.80;61.40;;;;;;4951639;28;104204;-81
2021/03/01 06:13:29;;;;;;;21.92;6.93;;;21.80;61.40;;;;;;4951277;28;101154;-82
2021/03/01 06:15:55;;;;;;;16.52;7.20;;;21.80;61.40;;;;;;4956819;28;112757;-80
2021/03/01 06:18:21;;;;;;;15.02;6.32;;;21.70;61.10;;;;;;4974512;28;118026;-83
2021/03/01 06:20:47;;;;;;;24.20;7.53;;;21.70;61.40;;;;;;4947899;28;114778;-79
2021/03/01 06:23:14;;;;;;;18.92;7.00;;;21.70;61.00;;;;;;4938820;28;103407;-81
2021/03/01 06:25:39;;;;;;;18.95;6.88;;;21.70;61.00;;;;;;4968624;28;100854;-80
2021/03/01 06:28:05;;;;;;;25.55;7.25;;;21.70;61.30;;;;;;4941907;28;101074;-79
2021/03/01 06:30:35;;;;;;;23.63;8.00;;;21.70;61.00;;;;;;4975567;28;119613;-82
2021/03/01 06:33:13;;;;;;;20.70;7.53;;;21.70;61.70;;;;;;4976950;28;100942;-81
2021/03/01 06:35:55;;;;;;;20.27;7.45;;;21.70;62.00;;;;;;4960121;28;100955;-80
2021/03/01 06:38:29;;;;;;;26.25;8.18;;;21.70;62.00;;;;;;4975901;28;101006;-82
2021/03/01 06:41:25;;;;;;;30.92;8.25;;;21.70;62.00;;;;;;4982799;28;101032;-80
2021/03/01 06:43:58;;;;;;;28.45;8.90;;;21.70;61.80;;;;;;4965443;28;101951;-82
2021/03/01 06:46:25;;;;;;;21.75;8.75;;;21.70;62.50;;;;;;4974310;28;101885;-80
2021/03/01 06:48:51;;;;;;;19.80;7.57;;;21.70;61.70;;;;;;4955293;28;103977;-80
2021/03/01 06:51:16;;;;;;;20.77;8.02;;;21.80;61.80;;;;;;4967541;28;102164;-79
2021/03/01 06:53:42;;;;;;;21.73;8.30;;;21.70;61.70;;;;;;4970290;28;111267;-81
2021/03/01 06:56:11;;;;;;;21.92;8.38;;;21.70;61.70;;;;;;4975562;28;100950;-80
2021/03/01 06:58:44;;;;;;;25.92;7.80;;;21.70;61.70;;;;;;4971233;28;102437;-79
2021/03/01 07:01:13;;;;;;;26.98;8.60;;;21.70;61.60;;;;;;4977082;28;102248;-79
2021/03/01 07:03:40;;;;;;;24.40;8.43;;;21.70;61.70;;;;;;4984197;28;101106;-79
2021/03/01 07:06:06;;;;;;;23.98;8.60;;;21.70;61.60;;;;;;4964985;28;101000;-79
2021/03/01 07:08:38;;;;;;;21.73;7.95;;;21.70;61.50;;;;;;4980418;28;103572;-79
2021/03/01 07:11:05;;;;;;;30.75;8.75;;;21.70;61.40;;;;;;4980690;28;101158;-79
2021/03/01 07:13:31;;;;;;;24.67;9.10;;;21.70;61.40;;;;;;4960597;28;101072;-80
2021/03/01 07:15:57;;;;;;;20.83;9.07;;;21.70;61.50;;;;;;4957466;28;101388;-80
2021/03/01 07:18:23;;;;;;;30.02;8.70;;;21.70;61.60;;;;;;4958391;28;103217;-80
2021/03/01 07:20:49;;;;;;;25.55;9.18;;;21.70;61.60;;;;;;4957618;28;102823;-80
2021/03/01 07:23:15;;;;;;;30.08;9.70;;;21.70;61.40;;;;;;4975836;28;100956;-78
2021/03/01 07:25:42;;;;;;;27.15;8.98;;;21.70;61.50;;;;;;4973733;28;101116;-81
2021/03/01 07:28:08;;;;;;;26.88;9.75;;;21.70;61.70;;;;;;4959276;28;102973;-81
2021/03/01 07:30:33;;;;;;;28.98;9.70;;;21.80;61.70;;;;;;4958742;28;102689;-80
2021/03/01 07:32:59;;;;;;;27.95;10.20;;;21.70;61.60;;;;;;4958795;28;101098;-82
2021/03/01 07:35:25;;;;;;;31.02;10.13;;;21.70;61.60;;;;;;4957150;28;100935;-81
2021/03/01 07:37:50;;;;;;;28.90;10.10;;;21.70;61.50;;;;;;4936589;28;103553;-81
2021/03/01 07:40:16;;;;;;;33.88;10.40;;;21.70;61.40;;;;;;4970012;28;130320;-80
2021/03/01 07:42:41;;;;;;;31.75;10.15;;;21.70;61.30;;;;;;4956455;28;101529;-80
2021/03/01 07:45:07;;;;;;;27.33;10.00;;;21.70;61.50;;;;;;4959464;28;100858;-81
2021/03/01 07:47:35;;;;;;;33.53;10.18;;;21.70;61.40;;;;;;4943709;28;104810;-82
2021/03/01 07:50:01;;;;;;;27.63;9.50;;;21.70;61.50;;;;;;4977090;28;101503;-82
2021/03/01 07:52:31;;;;;;;27.60;9.75;;;21.80;61.40;;;;;;4957522;28;100917;-80
2021/03/01 07:55:00;;;;;;;33.97;10.45;;;21.70;61.30;;;;;;4973671;28;101058;-81
2021/03/01 07:57:26;;;;;;;24.57;9.47;;;21.70;61.30;;;;;;4955194;28;103731;-82
2021/03/01 07:59:52;;;;;;;29.83;9.23;;;21.70;61.20;;;;;;4956245;28;100226;-82
2021/03/01 08:02:21;;;;;;;30.35;9.73;;;21.80;61.20;;;;;;4974994;28;101194;-83
2021/03/01 08:04:47;;;;;;;32.83;10.40;;;21.70;61.10;;;;;;4975636;28;100766;-82
2021/03/01 08:07:13;;;;;;;32.47;10.65;;;21.70;61.30;;;;;;4955053;28;128768;-80
2021/03/01 08:09:45;;;;;;;26.52;9.02;;;21.80;61.50;;;;;;4957544;28;102571;-80
2021/03/01 08:12:30;;;;;;;30.48;10.07;;;21.80;61.30;;;;;;4975987;28;101320;-79
2021/03/01 08:15:00;;;;;;;34.17;9.20;;;21.80;61.20;;;;;;4970201;28;101331;-81
2021/03/01 08:17:25;;;;;;;36.58;9.73;;;21.70;61.30;;;;;;4951458;28;103196;-81
2021/03/01 08:19:51;;;;;;;28.30;9.35;;;21.70;61.40;;;;;;4975846;28;103731;-80
2021/03/01 08:22:17;;;;;;;30.15;9.57;;;21.80;61.40;;;;;;4974606;28;101265;-81
2021/03/01 08:24:46;;;;;;;23.48;8.95;;;21.80;61.50;;;;;;4957096;28;109607;-82
2021/03/01 08:30:16;;;;;;;26.58;9.90;;;21.80;61.20;;;;;;5012208;28;101552;-79
2021/03/01 08:32:42;;;;;;;27.70;9.20;;;21.80;61.00;;;;;;5001186;28;101076;-81
2021/03/01 08:35:26;;;;;;;27.40;9.68;;;21.80;60.80;;;;;;4978824;28;101003;-80
2021/03/01 08:37:51;;;;;;;28.95;8.90;;;21.90;60.60;;;;;;4958377;28;101059;-81
2021/03/01 08:40:21;;;;;;;28.02;10.10;;;21.90;60.60;;;;;;4977518;28;101341;-80
2021/03/01 08:42:52;;;;;;;25.13;9.65;;;21.90;60.60;;;;;;4980045;28;100969;-81
2021/03/01 08:45:23;;;;;;;26.95;8.82;;;21.90;60.50;;;;;;4995069;28;101126;-80
2021/03/01 08:47:50;;;;;;;22.77;7.82;;;21.90;60.30;;;;;;4976333;28;102708;-82
2021/03/01 08:50:20;;;;;;;23.08;9.32;;;22.00;60.30;;;;;;4957597;28;102597;-81
2021/03/01 08:52:49;;;;;;;28.70;9.98;;;21.90;60.00;;;;;;4958648;28;101443;-81
2021/03/01 08:55:18;;;;;;;22.80;8.55;;;22.00;60.00;;;;;;4958721;28;101734;-82
2021/03/01 08:58:00;;;;;;;24.30;9.23;;;22.10;59.90;;;;;;4977377;28;103792;-81
2021/03/01 09:00:28;;;;;;;27.98;8.88;;;22.10;59.80;;;;;;4994582;28;102732;-81
2021/03/01 09:03:12;;;;;;;32.65;9.60;;;22.10;59.80;;;;;;4979667;28;100993;-83
2021/03/01 09:05:37;;;;;;;27.40;9.25;;;22.10;59.70;;;;;;4989191;28;101054;-82
2021/03/01 09:08:04;;;;;;;25.60;9.82;;;22.20;59.30;;;;;;4972730;28;105083;-82
2021/03/01 09:10:34;;;;;;;28.70;9.52;;;22.20;58.80;;;;;;4985417;28;102736;-82
2021/03/01 09:13:00;;;;;;;29.23;8.70;;;22.30;59.10;;;;;;4965848;28;101101;-81
2021/03/01 09:15:25;;;;;;;29.15;9.30;;;22.30;58.20;;;;;;4985061;28;100301;-81
2021/03/01 09:17:52;;;;;;;21.23;8.63;;;22.40;57.80;;;;;;4970007;28;104851;-82
2021/03/01 09:20:17;;;;;;;24.42;9.13;;;22.50;57.50;;;;;;4961292;28;100997;-81
2021/03/01 09:22:43;;;;;;;22.23;8.63;;;22.50;57.50;;;;;;4970981;28;100233;-81
2021/03/01 09:25:31;;;;;;;19.35;8.80;;;22.50;57.70;;;;;;4977548;28;101875;-81
2021/03/01 09:27:57;;;;;;;24.65;9.20;;;22.40;57.50;;;;;;4984436;28;102759;-80
2021/03/01 09:30:23;;;;;;;30.58;8.65;;;22.50;57.30;;;;;;4953770;28;102402;-79
2021/03/01 09:33:02;;;;;;;29.63;8.57;;;22.70;56.60;;;;;;4985090;28;101525;-83
2021/03/01 09:35:32;;;;;;;22.45;8.30;;;22.80;55.70;;;;;;5017661;28;101432;-82
2021/03/01 09:37:58;;;;;;;23.77;8.18;;;22.80;56.50;;;;;;4990365;28;101917;-82
2021/03/01 09:40:24;;;;;;;24.27;8.85;;;22.70;56.70;;;;;;4983696;28;103095;-81
2021/03/01 09:42:52;;;;;;;28.13;8.95;;;22.80;56.70;;;;;;4977895;28;101039;-82
2021/03/01 09:45:18;;;;;;;31.45;9.25;;;23.00;55.90;;;;;;4995431;28;100488;-81
2021/03/01 09:47:43;;;;;;;30.10;9.20;;;23.30;54.80;;;;;;4970759;28;101144;-81
2021/03/01 09:50:09;;;;;;;26.80;8.90;;;23.50;53.40;;;;;;4991368;28;102438;-81
2021/03/01 09:52:35;;;;;;;25.52;9.15;;;23.50;53.20;;;;;;4986993;28;101585;-81
2021/03/01 09:55:01;;;;;;;24.35;8.63;;;23.70;53.30;;;;;;4963719;28;101034;-81
2021/03/01 09:57:30;;;;;;;27.80;8.63;;;23.90;52.90;;;;;;4963444;28;104627;-81
2021/03/01 09:59:56;;;;;;;40.67;8.73;;;24.20;52.50;;;;;;4958485;28;103023;-81
2021/03/01 10:02:25;;;;;;;35.35;9.73;;;24.40;51.60;;;;;;4970634;28;102584;-81
2021/03/01 10:04:51;;;;;;;29.83;9.40;;;24.50;50.80;;;;;;4981447;28;101418;-81
2021/03/01 10:07:25;;;;;;;30.30;8.90;;;24.70;51.10;;;;;;4980001;28;102692;-81
2021/03/01 10:09:51;;;;;;;30.92;8.40;;;24.90;50.20;;;;;;4981176;28;101068;-82
2021/03/01 10:12:16;;;;;;;31.85;8.23;;;25.20;49.30;;;;;;4983216;28;101222;-82
2021/03/01 10:14:42;;;;;;;33.22;8.13;;;25.70;48.50;;;;;;4982297;28;101437;-82
2021/03/01 10:17:20;;;;;;;25.55;8.48;;;26.10;47.30;;;;;;4980965;28;102271;-82
2021/03/01 10:19:46;;;;;;;22.98;7.70;;;26.50;46.00;;;;;;4982565;28;101047;-78
2021/03/01 10:22:12;;;;;;;23.55;7.90;;;26.90;45.70;;;;;;4965024;28;101088;-82
2021/03/01 10:24:44;;;;;;;23.85;7.90;;;27.40;43.90;;;;;;4964657;28;101008;-83
2021/03/01 10:27:10;;;;;;;30.15;8.35;;;27.90;42.80;;;;;;4989728;28;101923;-78
2021/03/01 10:29:37;;;;;;;26.60;8.43;;;28.40;41.60;;;;;;5005537;28;101444;-78
2021/03/01 10:32:04;;;;;;;29.77;9.02;;;28.70;40.70;;;;;;4987391;28;101206;-79
2021/03/01 10:34:35;;;;;;;25.58;7.50;;;28.90;40.40;;;;;;4998342;28;100773;-78
2021/03/01 10:37:02;;;;;;;24.30;9.18;;;29.00;40.40;;;;;;4987978;28;103804;-78
2021/03/01 10:39:31;;;;;;;27.80;8.30;;;29.00;40.10;;;;;;5003606;28;100514;-78
2021/03/01 10:41:58;;;;;;;24.73;7.57;;;29.00;40.00;;;;;;4994089;28;101418;-79
2021/03/01 10:44:28;;;;;;;27.70;7.75;;;29.10;40.20;;;;;;4983217;28;101680;-80
2021/03/01 10:46:54;;;;;;;21.85;8.00;;;29.10;41.00;;;;;;5016645;28;101677;-79
2021/03/01 10:49:27;;;;;;;28.40;8.25;;;28.80;41.80;;;;;;4993730;28;100919;-79
2021/03/01 10:51:56;;;;;;;21.58;7.72;;;27.60;44.80;;;;;;5026893;28;100974;-80
2021/03/01 10:54:23;;;;;;;19.67;7.97;;;26.50;47.30;;;;;;5011219;28;100674;-80
2021/03/01 10:56:49;;;;;;;28.17;8.15;;;25.90;48.50;;;;;;4989561;28;102546;-79
2021/03/01 10:59:15;;;;;;;30.10;8.77;;;25.60;49.30;;;;;;4961708;28;104081;-80
2021/03/01 11:01:42;;;;;;;25.58;9.48;;;25.50;49.70;;;;;;5001651;28;101024;-79
2021/03/01 11:04:08;;;;;;;54.67;10.55;;;25.30;49.90;;;;;;5000740;28;100955;-79
2021/03/01 11:06:34;;;;;;;38.67;9.05;;;25.20;50.40;;;;;;4996428;28;106737;-80
2021/03/01 11:09:00;;;;;;;66.80;11.10;;;25.10;50.80;;;;;;4997992;28;100975;-81
2021/03/01 11:11:26;;;;;;;38.22;10.20;;;24.90;50.20;;;;;;5001312;28;100311;-78
2021/03/01 11:13:51;;;;;;;45.22;10.23;;;24.80;51.30;;;;;;4980180;28;100760;-80
2021/03/01 11:16:17;;;;;;;47.35;10.27;;;24.80;51.50;;;;;;5001033;28;104069;-81
2021/03/01 11:18:43;;;;;;;46.03;10.50;;;24.70;51.60;;;;;;4993448;28;102267;-81
2021/03/01 11:21:09;;;;;;;25.60;8.73;;;24.80;51.50;;;;;;4993548;28;100463;-76
2021/03/01 11:23:35;;;;;;;23.48;9.80;;;24.50;46.20;;;;;;5001301;28;100876;-79
2021/03/01 11:26:01;;;;;;;23.67;10.90;;;23.70;43.90;;;;;;4991297;28;104951;-78
2021/03/01 11:28:27;;;;;;;96.30;29.80;;;23.00;43.30;;;;;;4991942;28;100914;-78
2021/03/01 11:30:53;;;;;;;67.53;21.42;;;22.60;43.00;;;;;;4991830;28;101361;-80
2021/03/01 11:33:19;;;;;;;61.58;16.92;;;22.40;42.70;;;;;;4991181;28;101363;-79
2021/03/01 11:35:44;;;;;;;42.28;14.90;;;22.30;42.40;;;;;;5006817;28;101197;-79
2021/03/01 11:38:10;;;;;;;28.98;12.63;;;22.30;42.60;;;;;;4999727;28;101198;-78
2021/03/01 11:40:35;;;;;;;33.60;11.32;;;22.10;41.90;;;;;;4990582;28;111491;-80
2021/03/01 11:43:01;;;;;;;27.25;11.88;;;22.10;42.60;;;;;;4968055;28;100829;-82
2021/03/01 11:45:26;;;;;;;21.95;10.10;;;21.90;42.40;;;;;;4974602;28;129200;-79
2021/03/01 11:47:52;;;;;;;27.35;10.25;;;22.00;41.80;;;;;;4985377;28;101025;-79
2021/03/01 11:50:18;;;;;;;24.25;9.90;;;21.90;41.30;;;;;;5008470;28;100305;-81
2021/03/01 11:52:44;;;;;;;33.05;10.50;;;21.90;42.10;;;;;;5010942;28;100765;-80
2021/03/01 11:55:11;;;;;;;25.48;9.82;;;21.90;41.50;;;;;;4993972;28;100553;-80
2021/03/01 11:57:36;;;;;;;18.58;9.43;;;21.80;42.20;;;;;;5008289;28;102519;-79
2021/03/01 12:00:04;;;;;;;16.27;8.95;;;21.90;41.80;;;;;;4992923;28;100815;-80
2021/03/01 12:02:30;;;;;;;17.02;9.98;;;21.70;41.40;;;;;;4989988;28;100947;-80
2021/03/01 12:04:56;;;;;;;11.77;8.13;;;21.80;41.20;;;;;;4998806;28;103982;-80
2021/03/01 12:07:22;;;;;;;15.75;8.70;;;21.70;41.50;;;;;;5012625;28;102957;-78
2021/03/01 12:09:47;;;;;;;17.50;8.68;;;21.80;40.90;;;;;;4993538;28;100611;-80
2021/03/01 12:12:13;;;;;;;15.43;8.48;;;21.80;40.30;;;;;;5009149;28;100794;-80
2021/03/01 12:14:43;;;;;;;16.58;9.13;;;21.90;40.00;;;;;;5009710;28;101850;-80
2021/03/01 12:17:30;;;;;;;14.93;8.75;;;21.90;39.70;;;;;;5008112;28;101026;-81
2021/03/01 12:20:36;;;;;;;12.15;8.80;;;22.00;39.50;;;;;;5012131;28;100860;-82
2021/03/01 12:23:22;;;;;;;15.90;8.82;;;22.00;38.40;;;;;;5004830;28;100235;-78
2021/03/01 12:25:48;;;;;;;12.63;9.32;;;21.90;38.90;;;;;;5005675;28;103456;-78
2021/03/01 12:28:14;;;;;;;14.15;9.07;;;21.80;39.00;;;;;;4975686;28;102938;-79
2021/03/01 12:31:22;;;;;;;15.77;9.65;;;21.70;39.40;;;;;;5012205;28;100965;-81
2021/03/01 12:34:11;;;;;;;13.25;8.43;;;21.90;37.90;;;;;;4997671;28;100289;-83
2021/03/01 12:36:58;;;;;;;13.40;9.10;;;22.20;38.30;;;;;;5002103;28;102230;-81
2021/03/01 12:39:44;;;;;;;14.05;8.82;;;22.30;37.80;;;;;;5015874;28;100838;-82
2021/03/01 12:42:10;;;;;;;12.30;8.45;;;22.50;37.60;;;;;;5016220;28;100888;-84